createdAt,value
2019-05-21T00:00:27.524Z,17.73
2019-05-21T00:02:55.799Z,17.80
2019-05-21T00:05:24.001Z,18.12
2019-05-21T00:07:52.213Z,16.57
2019-05-21T00:10:20.403Z,18.27
2019-05-21T00:12:48.622Z,16.67
2019-05-21T00:15:16.820Z,16.05
2019-05-21T00:17:45.024Z,17.15
2019-05-21T00:20:13.250Z,17.32
2019-05-21T00:22:41.512Z,15.83
2019-05-21T00:25:09.785Z,13.53
2019-05-21T00:27:37.980Z,16.35
2019-05-21T00:30:43.205Z,19.32
2019-05-21T00:33:47.939Z,17.52
2019-05-21T00:36:54.284Z,20.43
2019-05-21T00:39:59.444Z,21.87
2019-05-21T00:42:29.988Z,21.52
2019-05-21T00:44:58.262Z,22.02
2019-05-21T00:47:26.469Z,22.73
2019-05-21T00:49:54.687Z,21.25
2019-05-21T00:52:22.904Z,20.27
2019-05-21T00:54:51.126Z,21.10
2019-05-21T00:57:19.323Z,21.77
2019-05-21T00:59:47.613Z,19.10
2019-05-21T01:02:15.831Z,22.00
2019-05-21T01:04:58.133Z,17.98
2019-05-21T01:07:13.972Z,21.55
2019-05-21T01:09:42.187Z,21.57
2019-05-21T01:12:10.387Z,19.12
2019-05-21T01:14:38.596Z,16.32
2019-05-21T01:17:06.801Z,16.50
2019-05-21T01:19:35.004Z,16.25
2019-05-21T01:22:03.213Z,17.60
2019-05-21T01:24:31.428Z,14.45
2019-05-21T01:26:59.624Z,10.58
2019-05-21T01:29:27.830Z,9.08
2019-05-21T01:31:56.036Z,7.03
2019-05-21T01:34:24.248Z,7.83
2019-05-21T01:37:11.879Z,5.40
2019-05-21T01:39:40.080Z,4.25
2019-05-21T01:42:08.278Z,6.10
2019-05-21T01:44:36.480Z,6.22
2019-05-21T01:47:04.681Z,5.47
2019-05-21T01:49:32.883Z,4.62
2019-05-21T01:52:01.080Z,3.52
2019-05-21T01:54:29.276Z,4.05
2019-05-21T01:56:57.488Z,4.53
2019-05-21T01:59:25.690Z,3.40
2019-05-21T02:01:53.901Z,4.00
2019-05-21T02:04:22.101Z,3.42
2019-05-21T02:06:50.376Z,2.33
2019-05-21T02:09:18.580Z,2.35
2019-05-21T02:11:46.776Z,3.22
2019-05-21T02:14:15.025Z,2.72
2019-05-21T02:16:43.256Z,2.50
2019-05-21T02:19:11.452Z,2.52
2019-05-21T02:21:39.665Z,1.50
2019-05-21T02:24:07.900Z,1.92
2019-05-21T02:26:36.168Z,3.30
2019-05-21T02:29:04.364Z,2.50
2019-05-21T02:31:32.569Z,3.27
2019-05-21T02:34:00.775Z,2.60
2019-05-21T02:36:28.976Z,1.85
2019-05-21T02:38:57.183Z,2.77
2019-05-21T02:41:25.380Z,3.00
2019-05-21T02:43:53.575Z,3.05
2019-05-21T02:46:21.777Z,3.30
2019-05-21T02:48:49.980Z,3.12
2019-05-21T02:51:18.261Z,4.75
2019-05-21T02:53:46.449Z,6.83
2019-05-21T02:56:14.656Z,3.45
2019-05-21T02:58:42.864Z,5.83
2019-05-21T03:01:12.710Z,4.58
2019-05-21T03:03:40.909Z,3.10
2019-05-21T03:06:14.360Z,5.42
2019-05-21T03:08:39.040Z,3.70
2019-05-21T03:11:07.244Z,3.92
2019-05-21T03:13:35.440Z,5.22
2019-05-21T03:16:03.658Z,4.85
2019-05-21T03:18:31.860Z,3.65
2019-05-21T03:21:00.057Z,4.62
2019-05-21T03:23:28.254Z,3.90
2019-05-21T03:25:56.464Z,4.47
2019-05-21T03:28:24.670Z,6.12
2019-05-21T03:30:52.873Z,4.42
2019-05-21T03:33:21.074Z,5.70
2019-05-21T03:35:49.273Z,5.97
2019-05-21T03:38:17.476Z,4.00
2019-05-21T03:40:45.676Z,2.70
2019-05-21T03:43:13.879Z,3.98
2019-05-21T03:45:42.071Z,5.17
2019-05-21T03:48:10.282Z,3.50
2019-05-21T03:50:38.479Z,4.45
2019-05-21T03:53:06.689Z,3.90
2019-05-21T03:55:34.885Z,3.72
2019-05-21T03:58:03.085Z,5.22
2019-05-21T04:00:31.288Z,3.90
2019-05-21T04:02:59.557Z,2.67
2019-05-21T04:05:27.774Z,4.15
2019-05-21T04:07:55.981Z,4.90
2019-05-21T04:10:24.655Z,5.28
2019-05-21T04:13:09.003Z,4.87
2019-05-21T04:15:40.163Z,5.65
2019-05-21T04:18:16.079Z,5.03
2019-05-21T04:20:44.341Z,4.55
2019-05-21T04:23:12.630Z,5.15
2019-05-21T04:25:40.830Z,5.33
2019-05-21T04:28:09.029Z,4.58
2019-05-21T04:30:37.230Z,5.87
2019-05-21T04:33:05.437Z,4.33
2019-05-21T04:35:33.631Z,4.67
2019-05-21T04:38:01.840Z,4.97
2019-05-21T04:40:30.052Z,3.83
2019-05-21T04:43:01.907Z,4.97
2019-05-21T04:45:28.253Z,4.15
2019-05-21T04:47:56.458Z,4.22
2019-05-21T04:50:24.665Z,5.60
2019-05-21T04:52:52.869Z,3.30
2019-05-21T04:55:21.076Z,4.87
2019-05-21T04:57:49.277Z,6.08
2019-05-21T05:00:17.561Z,3.60
2019-05-21T05:02:45.760Z,5.40
2019-05-21T05:05:14.420Z,5.45
2019-05-21T05:07:42.630Z,5.10
2019-05-21T05:10:10.820Z,5.45
2019-05-21T05:12:39.034Z,3.47
2019-05-21T05:15:07.300Z,6.33
2019-05-21T05:17:35.592Z,4.22
2019-05-21T05:20:04.600Z,3.90
2019-05-21T05:22:32.807Z,3.95
2019-05-21T05:25:00.991Z,4.87
2019-05-21T05:27:29.205Z,4.10
2019-05-21T05:29:57.413Z,5.28
2019-05-21T05:32:25.609Z,3.40
2019-05-21T05:34:53.808Z,3.30
2019-05-21T05:37:22.011Z,4.75
2019-05-21T05:39:50.220Z,4.80
2019-05-21T05:42:18.427Z,5.05
2019-05-21T05:44:47.125Z,3.05
2019-05-21T05:47:15.339Z,4.08
2019-05-21T05:49:45.185Z,4.47
2019-05-21T05:52:13.394Z,4.22
2019-05-21T05:54:41.600Z,33.15
2019-05-21T05:57:09.803Z,3.95
2019-05-21T05:59:37.995Z,3.75
2019-05-21T06:02:06.196Z,4.17
2019-05-21T06:04:35.148Z,4.30
2019-05-21T06:07:03.340Z,4.20
2019-05-21T06:09:31.545Z,4.12
2019-05-21T06:11:59.740Z,3.70
2019-05-21T06:14:27.957Z,2.65
2019-05-21T06:16:56.156Z,3.58
2019-05-21T06:19:24.365Z,3.37
2019-05-21T06:21:52.561Z,1.87
2019-05-21T06:24:20.772Z,2.27
2019-05-21T06:26:48.978Z,2.08
2019-05-21T06:29:17.172Z,2.08
2019-05-21T06:31:45.376Z,1.25
2019-05-21T06:34:13.581Z,1.47
2019-05-21T06:36:41.784Z,0.90
2019-05-21T06:39:09.999Z,1.52
2019-05-21T06:41:38.188Z,3.65
2019-05-21T06:44:06.396Z,2.80
2019-05-21T06:46:34.665Z,1.42
2019-05-21T06:49:02.874Z,1.87
2019-05-21T06:51:31.116Z,2.27
2019-05-21T06:53:59.356Z,2.33
2019-05-21T06:56:27.554Z,4.25
2019-05-21T06:58:55.752Z,2.20
2019-05-21T07:01:28.822Z,2.02
2019-05-21T07:03:53.898Z,0.82
2019-05-21T07:06:22.104Z,2.20
2019-05-21T07:08:50.305Z,1.17
2019-05-21T07:11:18.512Z,1.30
2019-05-21T07:13:46.711Z,1.87
2019-05-21T07:16:14.918Z,1.20
2019-05-21T07:18:43.120Z,0.82
2019-05-21T07:21:11.328Z,0.80
2019-05-21T07:23:39.532Z,0.65
2019-05-21T07:26:07.728Z,0.50
2019-05-21T07:28:35.942Z,1.20
2019-05-21T07:31:04.141Z,0.90
2019-05-21T07:33:32.349Z,0.50
2019-05-21T07:36:00.544Z,3.17
2019-05-21T07:38:28.753Z,1.15
2019-05-21T07:40:56.949Z,2.15
2019-05-21T07:43:25.152Z,0.72
2019-05-21T07:45:53.357Z,1.20
2019-05-21T07:48:21.578Z,1.12
2019-05-21T07:50:49.777Z,0.93
2019-05-21T07:53:18.012Z,0.82
2019-05-21T07:55:46.205Z,2.00
2019-05-21T07:58:14.433Z,0.50
2019-05-21T08:00:42.808Z,0.72
2019-05-21T08:03:11.010Z,1.77
2019-05-21T08:05:39.224Z,0.78
2019-05-21T08:08:07.416Z,2.05
2019-05-21T08:10:35.619Z,0.80
2019-05-21T08:13:03.830Z,1.30
2019-05-21T08:15:32.030Z,0.53
2019-05-21T08:18:00.232Z,0.62
2019-05-21T08:20:28.436Z,0.47
2019-05-21T08:22:56.654Z,0.68
2019-05-21T08:25:24.864Z,0.70
2019-05-21T08:27:53.080Z,2.27
2019-05-21T08:30:21.260Z,1.90
2019-05-21T08:32:49.461Z,0.37
2019-05-21T08:35:17.667Z,0.40
2019-05-21T08:37:45.870Z,1.05
2019-05-21T08:40:14.079Z,0.42
2019-05-21T08:42:42.279Z,0.68
2019-05-21T08:45:10.493Z,1.50
2019-05-21T08:47:38.702Z,0.33
2019-05-21T08:50:07.565Z,0.47
2019-05-21T08:52:35.761Z,1.80
2019-05-21T08:55:06.013Z,0.82
2019-05-21T08:57:34.212Z,1.00
2019-05-21T09:00:02.414Z,1.22
2019-05-21T09:02:30.638Z,0.98
2019-05-21T09:04:58.909Z,0.40
2019-05-21T09:07:27.125Z,1.25
2019-05-21T09:09:55.331Z,0.80
2019-05-21T09:12:23.529Z,0.40
2019-05-21T09:14:51.745Z,1.27
2019-05-21T09:17:19.943Z,0.40
2019-05-21T09:19:48.152Z,1.77
2019-05-21T09:22:16.374Z,0.60
2019-05-21T09:24:44.586Z,1.07
2019-05-21T09:27:12.859Z,0.90
2019-05-21T09:29:41.052Z,1.02
2019-05-21T09:32:09.497Z,2.50
2019-05-21T09:34:48.147Z,0.95
2019-05-21T09:37:19.188Z,1.52
2019-05-21T09:39:37.820Z,1.20
2019-05-21T09:42:06.021Z,1.07
2019-05-21T09:44:34.223Z,1.22
2019-05-21T09:47:02.425Z,1.25
2019-05-21T09:49:30.628Z,0.60
2019-05-21T09:51:58.832Z,1.62
2019-05-21T09:54:27.043Z,1.17
2019-05-21T09:56:55.240Z,0.60
2019-05-21T09:59:28.221Z,0.57
2019-05-21T10:02:10.340Z,2.35
2019-05-21T10:04:38.541Z,0.88
2019-05-21T10:07:06.756Z,0.80
2019-05-21T10:09:34.953Z,0.88
2019-05-21T10:12:03.425Z,1.57
2019-05-21T10:14:34.118Z,1.27
2019-05-21T10:17:01.551Z,1.10
2019-05-21T10:19:29.760Z,1.17
2019-05-21T10:21:57.959Z,1.32
2019-05-21T10:24:26.160Z,1.07
2019-05-21T10:26:54.361Z,1.07
2019-05-21T10:29:22.566Z,1.32
2019-05-21T10:31:50.760Z,2.30
2019-05-21T10:34:18.967Z,1.52
2019-05-21T10:36:47.167Z,0.93
2019-05-21T10:39:15.444Z,1.67
2019-05-21T10:41:46.033Z,0.88
2019-05-21T10:44:13.580Z,1.75
2019-05-21T10:46:41.787Z,1.02
2019-05-21T10:49:09.990Z,1.25
2019-05-21T10:51:38.180Z,1.05
2019-05-21T10:54:07.060Z,1.57
2019-05-21T10:56:47.424Z,0.88
2019-05-21T10:59:05.181Z,1.07
2019-05-21T11:01:50.068Z,1.15
2019-05-21T11:04:25.996Z,0.50
2019-05-21T11:06:54.196Z,1.42
2019-05-21T11:09:23.084Z,1.25
2019-05-21T11:11:51.274Z,1.05
2019-05-21T11:14:19.478Z,1.35
2019-05-21T11:16:47.673Z,0.50
2019-05-21T11:19:15.868Z,1.00
2019-05-21T11:21:44.074Z,0.75
2019-05-21T11:24:12.504Z,1.22
2019-05-21T11:26:40.871Z,1.37
2019-05-21T11:29:09.068Z,0.50
2019-05-21T11:31:37.280Z,2.00
2019-05-21T11:34:05.475Z,1.47
2019-05-21T11:36:33.682Z,1.50
2019-05-21T11:39:01.875Z,1.07
2019-05-21T11:41:30.079Z,1.57
2019-05-21T11:43:58.282Z,3.80
2019-05-21T11:46:26.492Z,1.30
2019-05-21T11:48:54.693Z,1.70
2019-05-21T11:51:22.898Z,0.60
2019-05-21T11:53:51.322Z,0.72
2019-05-21T11:56:19.701Z,0.65
2019-05-21T11:58:47.900Z,0.95
2019-05-21T12:01:16.324Z,1.00
2019-05-21T12:03:44.764Z,0.98
2019-05-21T12:06:12.994Z,1.17
2019-05-21T12:08:55.711Z,0.88
2019-05-21T12:11:11.276Z,0.40
2019-05-21T12:13:39.458Z,2.10
2019-05-21T12:16:07.661Z,1.42
2019-05-21T12:18:35.865Z,3.37
2019-05-21T12:21:04.072Z,4.53
2019-05-21T12:23:32.276Z,0.78
2019-05-21T12:26:00.613Z,0.78
2019-05-21T12:28:28.981Z,2.00
2019-05-21T12:30:57.185Z,0.75
2019-05-21T12:33:25.414Z,1.40
2019-05-21T12:35:53.620Z,1.45
2019-05-21T12:38:21.824Z,0.75
2019-05-21T12:40:50.029Z,1.05
2019-05-21T12:43:18.232Z,1.50
2019-05-21T12:45:46.457Z,1.15
2019-05-21T12:48:14.658Z,1.67
2019-05-21T12:50:42.933Z,1.40
2019-05-21T12:53:11.135Z,2.65
2019-05-21T12:55:39.336Z,2.20
2019-05-21T12:58:07.537Z,1.12
2019-05-21T13:00:35.879Z,1.60
2019-05-21T13:03:04.080Z,1.52
2019-05-21T13:05:32.361Z,1.72
2019-05-21T13:08:00.561Z,1.60
2019-05-21T13:10:28.962Z,1.20
2019-05-21T13:12:57.236Z,1.55
2019-05-21T13:15:25.444Z,1.17
2019-05-21T13:17:53.635Z,1.67
2019-05-21T13:20:21.934Z,1.95
2019-05-21T13:22:50.128Z,2.17
2019-05-21T13:25:18.375Z,0.50
2019-05-21T13:27:46.631Z,1.12
2019-05-21T13:30:14.837Z,2.22
2019-05-21T13:32:43.946Z,0.80
2019-05-21T13:35:12.327Z,2.08
2019-05-21T13:37:40.565Z,2.33
2019-05-21T13:40:08.741Z,3.45
2019-05-21T13:42:36.944Z,1.82
2019-05-21T13:45:06.779Z,1.35
2019-05-21T13:47:34.984Z,1.05
2019-05-21T13:50:05.926Z,2.67
2019-05-21T13:52:34.135Z,1.60
2019-05-21T13:55:02.386Z,1.67
2019-05-21T13:57:30.611Z,2.75
2019-05-21T13:59:58.852Z,2.27
2019-05-21T14:02:27.314Z,1.42
2019-05-21T14:04:55.518Z,2.72
2019-05-21T14:07:23.717Z,2.30
2019-05-21T14:10:12.596Z,2.17
2019-05-21T14:12:41.288Z,2.05
2019-05-21T14:15:09.485Z,1.30
2019-05-21T14:17:37.690Z,3.17
2019-05-21T14:20:07.531Z,1.35
2019-05-21T14:22:36.708Z,2.20
2019-05-21T14:25:06.161Z,3.02
2019-05-21T14:27:44.005Z,2.27
2019-05-21T14:30:06.997Z,3.17
2019-05-21T14:32:35.235Z,2.42
2019-05-21T14:35:03.480Z,2.35
2019-05-21T14:37:31.681Z,1.95
2019-05-21T14:39:59.886Z,2.90
2019-05-21T14:42:28.088Z,2.02
2019-05-21T14:44:56.289Z,1.90
2019-05-21T14:47:24.573Z,1.87
2019-05-21T14:49:52.788Z,1.72
2019-05-21T14:52:21.052Z,3.12
2019-05-21T14:54:49.257Z,2.25
2019-05-21T14:57:17.476Z,2.62
2019-05-21T14:59:46.033Z,7.20
2019-05-21T15:02:14.237Z,3.35
2019-05-21T15:04:42.645Z,1.92
2019-05-21T15:07:11.112Z,3.52
2019-05-21T15:09:39.312Z,1.80
2019-05-21T15:12:07.520Z,2.17
2019-05-21T15:14:35.743Z,2.42
2019-05-21T15:17:03.926Z,2.37
2019-05-21T15:19:32.125Z,2.72
2019-05-21T15:22:00.337Z,27.87
2019-05-21T15:24:28.542Z,42.73
2019-05-21T15:26:56.741Z,2.75
2019-05-21T15:29:24.936Z,3.20
2019-05-21T15:31:53.144Z,1.30
2019-05-21T15:34:21.340Z,3.05
2019-05-21T15:36:49.542Z,1.02
2019-05-21T15:39:17.736Z,1.65
2019-05-21T15:41:45.941Z,1.80
2019-05-21T15:44:14.140Z,1.42
2019-05-21T15:46:49.845Z,1.02
2019-05-21T15:49:12.270Z,1.27
2019-05-21T15:51:40.472Z,1.10
2019-05-21T15:54:08.669Z,2.15
2019-05-21T15:56:36.876Z,1.80
2019-05-21T15:59:05.342Z,1.52
2019-05-21T16:01:33.554Z,2.58
2019-05-21T16:04:01.753Z,1.60
2019-05-21T16:06:29.952Z,3.47
2019-05-21T16:08:58.181Z,1.70
2019-05-21T16:11:28.943Z,1.95
2019-05-21T16:14:15.736Z,2.15
2019-05-21T16:16:43.937Z,3.47
2019-05-21T16:19:12.140Z,1.82
2019-05-21T16:21:40.345Z,1.98
2019-05-21T16:24:08.553Z,2.45
2019-05-21T16:26:36.748Z,1.95
2019-05-21T16:29:04.964Z,1.67
2019-05-21T16:31:33.169Z,2.45
2019-05-21T16:34:01.375Z,1.90
2019-05-21T16:36:29.588Z,2.17
2019-05-21T16:38:57.927Z,2.15
2019-05-21T16:41:26.300Z,1.82
2019-05-21T16:43:54.545Z,2.40
2019-05-21T16:46:22.759Z,1.92
2019-05-21T16:48:51.017Z,3.70
2019-05-21T16:51:19.289Z,1.77
2019-05-21T16:53:47.493Z,1.98
2019-05-21T16:56:15.850Z,2.27
2019-05-21T16:58:44.101Z,2.50
2019-05-21T17:01:13.669Z,1.67
2019-05-21T17:03:41.872Z,1.40
2019-05-21T17:06:10.072Z,1.42
2019-05-21T17:08:38.281Z,2.30
2019-05-21T17:11:06.472Z,1.55
2019-05-21T17:13:54.108Z,1.47
2019-05-21T17:16:22.340Z,1.52
2019-05-21T17:18:50.528Z,1.25
2019-05-21T17:21:18.729Z,2.22
2019-05-21T17:23:46.938Z,3.50
2019-05-21T17:26:15.144Z,4.03
2019-05-21T17:28:43.358Z,2.00
2019-05-21T17:31:11.554Z,2.52
2019-05-21T17:33:39.761Z,3.90
2019-05-21T17:36:07.956Z,3.65
2019-05-21T17:38:36.233Z,2.98
2019-05-21T17:41:04.427Z,3.55
2019-05-21T17:43:32.637Z,3.92
2019-05-21T17:46:00.835Z,1.60
2019-05-21T17:48:29.057Z,2.25
2019-05-21T17:51:16.685Z,3.77
2019-05-21T17:53:44.894Z,3.55
2019-05-21T17:56:13.087Z,1.87
2019-05-21T17:58:41.288Z,3.00
2019-05-21T18:01:11.202Z,2.98
2019-05-21T18:03:39.408Z,3.17
2019-05-21T18:06:27.039Z,25.68
2019-05-21T18:08:55.256Z,3.20
2019-05-21T18:11:23.713Z,2.47
2019-05-21T18:13:52.311Z,4.05
2019-05-21T18:16:20.874Z,3.33
2019-05-21T18:18:49.070Z,2.37
2019-05-21T18:21:17.347Z,2.37
2019-05-21T18:23:45.545Z,1.82
2019-05-21T18:26:13.812Z,3.08
2019-05-21T18:28:42.281Z,3.22
2019-05-21T18:31:10.490Z,2.90
2019-05-21T18:33:38.854Z,2.67
2019-05-21T18:36:07.112Z,2.75
2019-05-21T18:38:35.512Z,3.47
2019-05-21T18:41:03.712Z,3.52
2019-05-21T18:43:31.913Z,3.77
2019-05-21T18:46:00.118Z,4.85
2019-05-21T18:48:28.333Z,2.77
2019-05-21T18:50:56.522Z,5.15
2019-05-21T18:53:44.148Z,4.60
2019-05-21T18:56:12.357Z,2.87
2019-05-21T18:58:40.621Z,4.40
2019-05-21T19:01:08.834Z,4.70
2019-05-21T19:03:37.044Z,5.15
2019-05-21T19:06:05.250Z,5.05
2019-05-21T19:08:33.456Z,3.98
2019-05-21T19:11:01.664Z,6.53
2019-05-21T19:13:29.865Z,4.17
2019-05-21T19:15:58.070Z,4.80
2019-05-21T19:18:26.269Z,4.03
2019-05-21T19:20:54.476Z,5.08
2019-05-21T19:23:22.671Z,4.67
2019-05-21T19:25:50.879Z,5.87
2019-05-21T19:28:19.071Z,5.42
2019-05-21T19:30:47.286Z,6.90
2019-05-21T19:33:15.487Z,6.40
2019-05-21T19:35:43.761Z,5.70
2019-05-21T19:38:11.967Z,5.12
2019-05-21T19:40:40.178Z,6.83
2019-05-21T19:43:08.372Z,5.42
2019-05-21T19:45:36.584Z,5.30
2019-05-21T19:48:04.781Z,6.08
2019-05-21T19:50:33.453Z,5.15
2019-05-21T19:53:01.651Z,5.25
2019-05-21T19:55:30.819Z,4.85
2019-05-21T19:57:59.084Z,4.60
2019-05-21T20:00:28.277Z,5.12
2019-05-21T20:02:56.844Z,6.37
2019-05-21T20:05:25.218Z,6.37
2019-05-21T20:07:53.487Z,5.20
2019-05-21T20:10:21.707Z,6.00
2019-05-21T20:12:49.921Z,5.92
2019-05-21T20:15:18.477Z,7.10
2019-05-21T20:17:50.996Z,6.47
2019-05-21T20:20:19.720Z,6.25
2019-05-21T20:22:48.100Z,4.70
2019-05-21T20:25:17.188Z,7.90
2019-05-21T20:27:45.565Z,5.55
2019-05-21T20:30:15.408Z,7.00
2019-05-21T20:32:44.345Z,6.58
2019-05-21T20:35:14.188Z,7.55
2019-05-21T20:37:42.734Z,7.05
2019-05-21T20:40:12.641Z,8.55
2019-05-21T20:42:41.484Z,6.35
2019-05-21T20:45:11.956Z,6.28
2019-05-21T20:47:40.239Z,6.92
2019-05-21T20:50:12.089Z,6.08
2019-05-21T20:52:40.694Z,5.67
2019-05-21T20:55:09.113Z,8.70
2019-05-21T20:57:49.881Z,6.35
2019-05-21T21:00:24.261Z,6.08
2019-05-21T21:02:52.724Z,3.47
2019-05-21T21:05:21.145Z,7.83
2019-05-21T21:07:49.996Z,7.10
2019-05-21T21:10:18.197Z,5.65
2019-05-21T21:12:46.668Z,7.03
2019-05-21T21:15:14.953Z,7.50
2019-05-21T21:17:43.838Z,3.92
2019-05-21T21:20:12.057Z,3.80
2019-05-21T21:22:40.261Z,4.90
2019-05-21T21:25:08.468Z,4.22
2019-05-21T21:27:36.747Z,4.17
2019-05-21T21:30:06.224Z,5.25
2019-05-21T21:32:34.449Z,5.67
2019-05-21T21:35:02.877Z,5.72
2019-05-21T21:37:31.076Z,5.47
2019-05-21T21:39:59.273Z,5.62
2019-05-21T21:42:27.476Z,6.10
2019-05-21T21:44:55.682Z,4.37
2019-05-21T21:47:23.887Z,3.83
2019-05-21T21:49:53.164Z,3.75
2019-05-21T21:52:21.744Z,4.08
2019-05-21T21:54:50.912Z,3.95
2019-05-21T21:57:19.186Z,4.30
2019-05-21T21:59:47.380Z,3.08
2019-05-21T22:02:18.835Z,4.58
2019-05-21T22:04:47.036Z,3.90
2019-05-21T22:07:15.246Z,3.02
2019-05-21T22:09:43.509Z,5.03
2019-05-21T22:12:13.363Z,5.37
2019-05-21T22:14:51.085Z,4.45
2019-05-21T22:17:13.237Z,3.90
2019-05-21T22:19:41.442Z,4.70
2019-05-21T22:22:10.520Z,4.60
2019-05-21T22:24:38.788Z,3.27
2019-05-21T22:27:07.010Z,4.03
2019-05-21T22:29:35.200Z,4.15
2019-05-21T22:32:03.409Z,5.08
2019-05-21T22:34:32.058Z,5.25
2019-05-21T22:37:00.248Z,5.00
2019-05-21T22:39:29.597Z,6.35
2019-05-21T22:41:57.792Z,5.20
2019-05-21T22:44:26.002Z,3.42
2019-05-21T22:46:54.369Z,5.12
2019-05-21T22:49:22.578Z,5.25
2019-05-21T22:51:51.041Z,3.80
2019-05-21T22:54:19.253Z,4.33
2019-05-21T22:56:47.448Z,5.30
2019-05-21T22:59:15.652Z,6.15
2019-05-21T23:01:44.039Z,3.47
2019-05-21T23:04:12.297Z,4.25
2019-05-21T23:06:40.765Z,6.35
2019-05-21T23:09:08.974Z,6.03
2019-05-21T23:11:37.176Z,5.45
2019-05-21T23:14:05.457Z,5.17
2019-05-21T23:16:33.733Z,4.30
2019-05-21T23:19:02.213Z,5.35
2019-05-21T23:21:31.178Z,4.85
2019-05-21T23:24:01.029Z,4.85
2019-05-21T23:26:30.309Z,6.45
2019-05-21T23:28:59.948Z,3.47
2019-05-21T23:31:29.787Z,4.15
2019-05-21T23:33:58.537Z,4.12
2019-05-21T23:36:27.100Z,4.20
2019-05-21T23:38:56.074Z,3.50
2019-05-21T23:41:24.741Z,4.08
2019-05-21T23:43:53.517Z,3.77
2019-05-21T23:46:21.721Z,4.92
2019-05-21T23:48:50.087Z,2.58
2019-05-21T23:51:18.302Z,4.97
2019-05-21T23:53:46.872Z,3.98
2019-05-21T23:56:15.064Z,5.15
2019-05-21T23:58:43.343Z,3.67
